Time;durP1;ratioP1;P1;durP2;ratioP2;P2;SDS_P1;SDS_P2;PMS_P1;PMS_P2;Temp;Humidity;BMP_temperature;BMP_pressure;BME280_temperature;BME280_humidity;BME280_pressure;Samples;Min_cycle;Max_cycle;Signal;HPM_P1;HPM_P2
2022/04/04 00:00:35;;;;;;;21.20;12.00;;;;;;;;;;743839;185;920796;-63
2022/04/04 00:03:01;;;;;;;21.10;12.67;;;;;;;;;;753355;187;918825;-63
2022/04/04 00:05:27;;;;;;;16.70;11.63;;;;;;;;;;747556;185;919823;-63
2022/04/04 00:07:52;;;;;;;14.80;9.60;;;;;;;;;;743924;187;920299;-63
2022/04/04 00:10:18;;;;;;;15.87;10.20;;;;;;;;;;747637;187;919565;-62
2022/04/04 00:12:44;;;;;;;21.37;12.60;;;;;;;;;;746739;185;918528;-63
2022/04/04 00:15:10;;;;;;;16.43;10.60;;;;;;;;;;745429;185;918717;-63
2022/04/04 00:17:36;;;;;;;15.73;10.43;;;;;;;;;;745216;188;919997;-66
2022/04/04 00:20:03;;;;;;;13.87;9.60;;;;;;;;;;740463;185;921487;-62
2022/04/04 00:22:28;;;;;;;17.30;10.65;;;;;;;;;;742119;184;918159;-62
2022/04/04 00:24:53;;;;;;;15.40;11.03;;;;;;;;;;750732;184;919738;-63
2022/04/04 00:27:19;;;;;;;17.57;10.37;;;;;;;;;;749699;184;917362;-62
2022/04/04 00:29:45;;;;;;;15.37;10.53;;;;;;;;;;752149;184;919362;-62
2022/04/04 00:32:11;;;;;;;13.37;10.00;;;;;;;;;;744090;185;920976;-63
2022/04/04 00:34:37;;;;;;;16.50;10.97;;;;;;;;;;745049;185;919076;-62
2022/04/04 00:37:03;;;;;;;15.03;11.60;;;;;;;;;;715484;190;920614;-63
2022/04/04 00:39:29;;;;;;;16.80;11.00;;;;;;;;;;752883;184;918490;-64
2022/04/04 00:41:56;;;;;;;13.37;10.07;;;;;;;;;;750019;185;918194;-64
2022/04/04 00:44:21;;;;;;;16.10;10.73;;;;;;;;;;736874;186;917621;-63
2022/04/04 00:46:47;;;;;;;15.60;9.93;;;;;;;;;;736565;186;924086;-63
2022/04/04 00:49:12;;;;;;;16.30;10.67;;;;;;;;;;737711;186;915473;-62
2022/04/04 00:51:38;;;;;;;18.10;10.10;;;;;;;;;;750349;186;915027;-62
2022/04/04 00:54:04;;;;;;;15.13;10.17;;;;;;;;;;741702;186;920305;-64
2022/04/04 00:56:32;;;;;;;16.37;9.57;;;;;;;;;;739440;185;919813;-63
2022/04/04 00:58:58;;;;;;;23.47;11.50;;;;;;;;;;750138;187;920615;-62
2022/04/04 01:01:24;;;;;;;14.10;9.03;;;;;;;;;;746170;185;918819;-63
2022/04/04 01:03:50;;;;;;;20.00;10.60;;;;;;;;;;748262;186;920725;-63
2022/04/04 01:06:15;;;;;;;12.83;9.70;;;;;;;;;;753986;186;918060;-63
2022/04/04 01:08:41;;;;;;;15.90;10.67;;;;;;;;;;750289;186;918420;-62
2022/04/04 01:11:07;;;;;;;15.20;10.40;;;;;;;;;;740760;187;919132;-63
2022/04/04 01:13:33;;;;;;;20.93;12.47;;;;;;;;;;742392;184;918797;-63
2022/04/04 01:15:59;;;;;;;16.80;10.43;;;;;;;;;;750185;182;934021;-63
2022/04/04 01:18:24;;;;;;;15.53;9.33;;;;;;;;;;738228;187;919259;-63
2022/04/04 01:20:51;;;;;;;14.93;10.52;;;;;;;;;;740024;185;920422;-64
2022/04/04 01:23:16;;;;;;;17.93;12.17;;;;;;;;;;747066;187;918582;-64
2022/04/04 01:25:42;;;;;;;16.50;11.47;;;;;;;;;;745719;185;918874;-64
2022/04/04 01:28:08;;;;;;;18.53;11.70;;;;;;;;;;743651;184;919581;-63
2022/04/04 01:30:34;;;;;;;14.50;11.50;;;;;;;;;;749978;187;919636;-64
2022/04/04 01:33:00;;;;;;;17.40;12.02;;;;;;;;;;746146;185;919775;-63
2022/04/04 01:35:25;;;;;;;21.63;12.40;;;;;;;;;;746747;187;918867;-64
2022/04/04 01:37:51;;;;;;;19.60;12.80;;;;;;;;;;747845;186;919121;-64
2022/04/04 01:40:17;;;;;;;13.93;10.37;;;;;;;;;;744596;187;929393;-64
2022/04/04 01:42:43;;;;;;;13.63;9.97;;;;;;;;;;747354;185;919282;-64
2022/04/04 01:45:09;;;;;;;15.63;10.33;;;;;;;;;;743748;185;1017958;-64
2022/04/04 01:47:36;;;;;;;17.30;11.20;;;;;;;;;;748349;187;920081;-64
2022/04/04 01:50:02;;;;;;;14.43;9.83;;;;;;;;;;716759;193;917922;-64
2022/04/04 01:52:28;;;;;;;12.90;9.77;;;;;;;;;;744826;185;919686;-63
2022/04/04 01:54:54;;;;;;;12.93;9.03;;;;;;;;;;751887;186;918992;-63
2022/04/04 01:57:19;;;;;;;13.87;9.40;;;;;;;;;;742111;186;919588;-63
2022/04/04 01:59:45;;;;;;;16.35;11.10;;;;;;;;;;744162;187;920146;-64
2022/04/04 02:02:11;;;;;;;15.37;9.97;;;;;;;;;;746417;186;918638;-65
2022/04/04 02:04:37;;;;;;;15.47;11.70;;;;;;;;;;742225;186;918775;-64
2022/04/04 02:07:05;;;;;;;17.03;10.67;;;;;;;;;;747631;186;924831;-64
2022/04/04 02:09:29;;;;;;;15.03;11.10;;;;;;;;;;746758;184;919614;-64
2022/04/04 02:11:55;;;;;;;14.37;11.67;;;;;;;;;;747177;187;909788;-64
2022/04/04 02:14:21;;;;;;;21.30;12.87;;;;;;;;;;742933;187;918092;-64
2022/04/04 02:16:47;;;;;;;14.83;10.73;;;;;;;;;;745242;187;919009;-64
2022/04/04 02:19:12;;;;;;;17.43;10.63;;;;;;;;;;753124;184;910685;-64
2022/04/04 02:21:38;;;;;;;15.47;10.80;;;;;;;;;;747227;185;920478;-64
2022/04/04 02:24:04;;;;;;;11.98;9.02;;;;;;;;;;744298;185;919502;-64
2022/04/04 02:26:31;;;;;;;19.37;10.93;;;;;;;;;;745969;185;1020084;-63
2022/04/04 02:28:56;;;;;;;16.20;8.73;;;;;;;;;;742233;186;935016;-64
2022/04/04 02:31:22;;;;;;;12.90;8.33;;;;;;;;;;741217;187;919238;-65
2022/04/04 02:33:48;;;;;;;18.12;9.13;;;;;;;;;;746075;183;919132;-63
2022/04/04 02:36:14;;;;;;;13.77;8.80;;;;;;;;;;751357;185;635093;-64
2022/04/04 02:38:40;;;;;;;14.30;9.00;;;;;;;;;;743496;187;641354;-65
2022/04/04 02:41:06;;;;;;;10.90;8.70;;;;;;;;;;744176;187;917475;-64
2022/04/04 02:43:31;;;;;;;16.33;8.67;;;;;;;;;;745744;185;919270;-64
2022/04/04 02:45:57;;;;;;;13.50;9.30;;;;;;;;;;743529;188;920762;-64
2022/04/04 02:48:23;;;;;;;14.07;8.63;;;;;;;;;;743205;184;919156;-65
2022/04/04 02:50:49;;;;;;;14.63;9.23;;;;;;;;;;744679;185;917850;-63
2022/04/04 02:53:15;;;;;;;14.47;10.10;;;;;;;;;;728990;188;919910;-64
2022/04/04 02:58:13;;;;;;;14.73;8.97;;;;;;;;;;737911;188;921059;-64
2022/04/04 03:00:38;;;;;;;10.27;7.77;;;;;;;;;;744558;186;918736;-64
2022/04/04 03:03:04;;;;;;;13.17;8.13;;;;;;;;;;748769;184;918753;-63
2022/04/04 03:05:30;;;;;;;13.57;9.03;;;;;;;;;;742793;185;921128;-64
2022/04/04 03:07:56;;;;;;;10.97;8.07;;;;;;;;;;747299;185;920457;-64
2022/04/04 03:10:21;;;;;;;19.03;9.87;;;;;;;;;;744321;186;922418;-65
2022/04/04 03:12:47;;;;;;;14.97;9.80;;;;;;;;;;743407;186;915624;-64
2022/04/04 03:15:14;;;;;;;12.80;8.00;;;;;;;;;;746633;186;915341;-63
2022/04/04 03:17:40;;;;;;;17.20;9.30;;;;;;;;;;749419;186;920035;-64
2022/04/04 03:20:09;;;;;;;19.90;9.80;;;;;;;;;;745190;186;1020926;-64
2022/04/04 03:22:33;;;;;;;11.93;8.67;;;;;;;;;;744900;185;919952;-64
2022/04/04 03:24:59;;;;;;;13.40;9.93;;;;;;;;;;746744;187;918385;-64
2022/04/04 03:27:24;;;;;;;10.00;8.80;;;;;;;;;;744200;185;919728;-64
2022/04/04 03:29:50;;;;;;;11.15;8.43;;;;;;;;;;745138;185;919200;-62
2022/04/04 03:32:16;;;;;;;14.30;10.10;;;;;;;;;;748391;187;918348;-63
2022/04/04 03:34:42;;;;;;;15.43;10.17;;;;;;;;;;741205;186;1083047;-65
2022/04/04 03:37:08;;;;;;;18.00;11.37;;;;;;;;;;743475;187;919562;-64
2022/04/04 03:39:34;;;;;;;18.27;13.13;;;;;;;;;;743531;187;919808;-63
2022/04/04 03:41:59;;;;;;;14.98;10.52;;;;;;;;;;745440;187;918401;-63
2022/04/04 03:44:26;;;;;;;20.27;12.20;;;;;;;;;;742415;187;919532;-64
2022/04/04 03:46:52;;;;;;;14.30;10.53;;;;;;;;;;739172;185;922279;-64
2022/04/04 03:49:18;;;;;;;20.43;12.33;;;;;;;;;;745669;186;929232;-63
2022/04/04 03:51:44;;;;;;;18.03;11.93;;;;;;;;;;749544;185;918854;-62
2022/04/04 03:54:09;;;;;;;16.77;11.13;;;;;;;;;;746335;185;919001;-63
2022/04/04 03:56:35;;;;;;;14.13;10.90;;;;;;;;;;753740;186;918161;-64
2022/04/04 03:59:01;;;;;;;22.70;10.30;;;;;;;;;;749533;186;917246;-64
2022/04/04 04:01:29;;;;;;;17.40;12.50;;;;;;;;;;746298;187;620448;-64
2022/04/04 04:03:53;;;;;;;15.03;10.00;;;;;;;;;;747794;184;626320;-64
2022/04/04 04:06:19;;;;;;;17.20;12.03;;;;;;;;;;754881;182;641518;-64
2022/04/04 04:08:44;;;;;;;14.80;11.77;;;;;;;;;;742569;187;919165;-63
2022/04/04 04:11:10;;;;;;;15.60;10.30;;;;;;;;;;743234;185;984696;-63
2022/04/04 04:13:36;;;;;;;20.47;11.87;;;;;;;;;;748954;185;916020;-63
2022/04/04 04:16:02;;;;;;;15.63;9.53;;;;;;;;;;742867;187;919334;-64
2022/04/04 04:18:28;;;;;;;16.10;10.50;;;;;;;;;;745104;185;919780;-64
2022/04/04 04:20:54;;;;;;;12.00;9.50;;;;;;;;;;751259;185;919537;-63
2022/04/04 04:23:20;;;;;;;13.83;9.83;;;;;;;;;;743973;187;915241;-63
2022/04/04 04:25:46;;;;;;;13.33;10.13;;;;;;;;;;747166;187;915347;-63
2022/04/04 04:28:11;;;;;;;14.90;9.17;;;;;;;;;;741591;186;915402;-62
2022/04/04 04:30:38;;;;;;;12.83;9.10;;;;;;;;;;743494;187;914508;-63
2022/04/04 04:33:04;;;;;;;12.00;9.10;;;;;;;;;;740094;186;929805;-64
2022/04/04 04:35:29;;;;;;;14.20;9.60;;;;;;;;;;740989;185;1021364;-64
2022/04/04 04:37:55;;;;;;;12.70;9.20;;;;;;;;;;747550;184;919186;-63
2022/04/04 04:40:21;;;;;;;11.13;8.73;;;;;;;;;;716283;192;919594;-63
2022/04/04 04:42:47;;;;;;;13.90;10.17;;;;;;;;;;740868;187;919258;-64
2022/04/04 04:45:13;;;;;;;18.13;9.07;;;;;;;;;;751319;185;627249;-64
2022/04/04 04:47:39;;;;;;;16.20;9.93;;;;;;;;;;724137;184;5264887;-65
2022/04/04 04:50:05;;;;;;;12.60;9.37;;;;;;;;;;742898;185;919662;-64
2022/04/04 04:52:31;;;;;;;18.02;9.93;;;;;;;;;;753630;186;919528;-65
2022/04/04 04:54:57;;;;;;;18.30;9.70;;;;;;;;;;744175;185;919610;-64
2022/04/04 04:57:23;;;;;;;15.90;10.93;;;;;;;;;;746869;185;919552;-64
2022/04/04 04:59:49;;;;;;;19.63;10.33;;;;;;;;;;749654;186;627681;-64
2022/04/04 05:02:14;;;;;;;15.20;10.40;;;;;;;;;;754658;186;627180;-63
2022/04/04 05:04:40;;;;;;;13.17;9.20;;;;;;;;;;745167;184;919045;-63
2022/04/04 05:07:07;;;;;;;13.37;9.13;;;;;;;;;;739670;185;1021252;-63
2022/04/04 05:09:32;;;;;;;19.43;10.90;;;;;;;;;;750677;187;918615;-66
2022/04/04 05:11:58;;;;;;;16.63;11.23;;;;;;;;;;744715;187;1021292;-63
2022/04/04 05:14:24;;;;;;;12.87;9.80;;;;;;;;;;744731;187;919273;-64
2022/04/04 05:16:50;;;;;;;11.73;9.10;;;;;;;;;;748766;185;919727;-62
2022/04/04 05:19:17;;;;;;;15.13;10.00;;;;;;;;;;742978;185;919452;-63
2022/04/04 05:21:43;;;;;;;22.80;9.37;;;;;;;;;;740368;186;919175;-64
2022/04/04 05:24:09;;;;;;;14.60;9.93;;;;;;;;;;744245;187;918915;-63
2022/04/04 05:26:35;;;;;;;10.65;8.38;;;;;;;;;;746659;187;921469;-63
2022/04/04 05:29:01;;;;;;;9.40;8.40;;;;;;;;;;749443;185;918912;-64
2022/04/04 05:31:27;;;;;;;13.30;10.30;;;;;;;;;;743713;187;1024250;-65
2022/04/04 05:33:54;;;;;;;13.33;8.57;;;;;;;;;;749091;185;918355;-63
2022/04/04 05:36:20;;;;;;;12.90;7.90;;;;;;;;;;749851;184;927520;-64
2022/04/04 05:38:44;;;;;;;12.07;8.35;;;;;;;;;;749807;184;918605;-64
2022/04/04 05:41:10;;;;;;;10.20;8.67;;;;;;;;;;748466;186;918783;-65
2022/04/04 05:43:36;;;;;;;13.00;9.53;;;;;;;;;;719138;193;919437;-63
2022/04/04 05:46:02;;;;;;;10.90;8.57;;;;;;;;;;739282;187;919656;-64
2022/04/04 05:48:30;;;;;;;13.00;8.10;;;;;;;;;;744084;185;924117;-64
2022/04/04 05:50:53;;;;;;;10.60;7.73;;;;;;;;;;748954;186;919047;-63
2022/04/04 05:53:19;;;;;;;11.70;8.30;;;;;;;;;;744556;185;919700;-62
2022/04/04 05:55:45;;;;;;;11.90;8.10;;;;;;;;;;744104;187;918086;-64
2022/04/04 05:58:11;;;;;;;10.43;7.63;;;;;;;;;;747560;186;919008;-64
2022/04/04 06:00:37;;;;;;;15.17;7.93;;;;;;;;;;748382;185;919426;-64
2022/04/04 06:03:02;;;;;;;11.40;8.20;;;;;;;;;;750392;184;918687;-63
2022/04/04 06:05:30;;;;;;;8.00;6.63;;;;;;;;;;752832;187;917192;-62
2022/04/04 06:07:54;;;;;;;11.03;7.77;;;;;;;;;;745281;187;918580;-62
2022/04/04 06:10:20;;;;;;;11.97;8.03;;;;;;;;;;744289;186;919313;-62
2022/04/04 06:12:46;;;;;;;10.60;7.70;;;;;;;;;;740991;188;919716;-60
2022/04/04 06:15:12;;;;;;;14.13;8.47;;;;;;;;;;744787;185;918949;-61
2022/04/04 06:17:38;;;;;;;10.52;6.75;;;;;;;;;;742742;185;918647;-60
2022/04/04 06:20:04;;;;;;;10.43;8.20;;;;;;;;;;739444;185;921684;-60
2022/04/04 06:22:34;;;;;;;12.07;7.57;;;;;;;;;;735013;185;919164;-61
2022/04/04 06:24:59;;;;;;;10.27;6.40;;;;;;;;;;740206;187;920406;-60
2022/04/04 06:27:25;;;;;;;14.07;7.73;;;;;;;;;;742708;186;918720;-59
2022/04/04 06:29:51;;;;;;;14.50;7.77;;;;;;;;;;747415;186;919910;-60
2022/04/04 06:32:17;;;;;;;9.87;7.30;;;;;;;;;;744771;187;923320;-60
2022/04/04 06:34:43;;;;;;;10.70;6.60;;;;;;;;;;739271;187;919429;-60
2022/04/04 06:37:10;;;;;;;15.00;8.03;;;;;;;;;;750577;185;919417;-60
2022/04/04 06:39:35;;;;;;;8.00;6.53;;;;;;;;;;751477;187;918492;-59
2022/04/04 06:42:01;;;;;;;10.33;7.27;;;;;;;;;;713909;195;916434;-59
2022/04/04 06:44:26;;;;;;;9.57;6.90;;;;;;;;;;710485;191;916559;-60
2022/04/04 06:46:52;;;;;;;10.37;7.03;;;;;;;;;;744489;188;915309;-58
2022/04/04 06:49:18;;;;;;;16.20;7.40;;;;;;;;;;748149;186;920264;-59
2022/04/04 06:51:44;;;;;;;9.60;7.03;;;;;;;;;;743052;185;918716;-60
2022/04/04 06:54:10;;;;;;;9.47;7.37;;;;;;;;;;746615;184;918032;-59
2022/04/04 06:56:35;;;;;;;10.93;7.23;;;;;;;;;;751362;185;919546;-59
2022/04/04 06:59:01;;;;;;;11.47;8.10;;;;;;;;;;746109;187;920257;-59
2022/04/04 07:01:27;;;;;;;9.47;8.13;;;;;;;;;;749284;186;919363;-58
2022/04/04 07:03:53;;;;;;;11.90;8.27;;;;;;;;;;748460;185;918670;-59
2022/04/04 07:06:19;;;;;;;10.60;7.20;;;;;;;;;;741348;184;920140;-58
2022/04/04 07:08:45;;;;;;;9.77;7.80;;;;;;;;;;739547;185;958987;-60
2022/04/04 07:11:10;;;;;;;10.02;6.93;;;;;;;;;;750017;185;921377;-59
2022/04/04 07:13:36;;;;;;;10.53;6.73;;;;;;;;;;752346;184;919070;-59
2022/04/04 07:16:02;;;;;;;12.13;6.80;;;;;;;;;;743628;184;919125;-60
2022/04/04 07:18:28;;;;;;;13.87;6.60;;;;;;;;;;745409;185;918861;-60
2022/04/04 07:20:54;;;;;;;11.60;7.63;;;;;;;;;;721010;190;920450;-59
2022/04/04 07:23:21;;;;;;;9.17;7.73;;;;;;;;;;740896;186;918878;-60
2022/04/04 07:25:46;;;;;;;8.80;6.40;;;;;;;;;;745713;186;997132;-59
2022/04/04 07:28:13;;;;;;;10.10;6.60;;;;;;;;;;743074;187;918435;-60
2022/04/04 07:30:38;;;;;;;11.17;6.93;;;;;;;;;;746465;185;1020934;-59
2022/04/04 07:33:04;;;;;;;9.48;6.80;;;;;;;;;;741423;188;919141;-59
2022/04/04 07:35:29;;;;;;;9.10;6.30;;;;;;;;;;750761;186;947824;-59
2022/04/04 07:37:55;;;;;;;12.43;7.10;;;;;;;;;;749854;186;919928;-60
2022/04/04 07:40:21;;;;;;;8.32;7.43;;;;;;;;;;752152;185;919800;-60
2022/04/04 07:42:47;;;;;;;11.40;5.93;;;;;;;;;;749352;187;920216;-60
2022/04/04 07:45:13;;;;;;;10.07;7.13;;;;;;;;;;743555;185;919673;-60
2022/04/04 07:47:39;;;;;;;9.90;6.40;;;;;;;;;;743831;187;918904;-60
2022/04/04 07:50:06;;;;;;;10.03;5.30;;;;;;;;;;749436;185;919059;-60
2022/04/04 07:52:31;;;;;;;9.63;5.72;;;;;;;;;;743776;187;922928;-61
2022/04/04 07:54:57;;;;;;;9.00;6.13;;;;;;;;;;744306;187;944627;-60
2022/04/04 07:57:23;;;;;;;12.63;7.03;;;;;;;;;;744276;185;918671;-60
2022/04/04 07:59:51;;;;;;;13.65;6.12;;;;;;;;;;751710;185;917422;-60
2022/04/04 08:02:15;;;;;;;9.07;6.93;;;;;;;;;;747148;185;920722;-59
2022/04/04 08:04:41;;;;;;;6.40;4.07;;;;;;;;;;745440;185;917657;-59
2022/04/04 08:07:06;;;;;;;11.20;7.17;;;;;;;;;;752139;185;918993;-60
2022/04/04 08:09:32;;;;;;;7.57;5.80;;;;;;;;;;748977;185;916793;-61
2022/04/04 08:11:58;;;;;;;9.02;6.62;;;;;;;;;;745195;186;915709;-60
2022/04/04 08:14:24;;;;;;;8.20;5.57;;;;;;;;;;750586;187;913878;-60
2022/04/04 08:16:50;;;;;;;10.63;7.87;;;;;;;;;;745428;187;920495;-60
2022/04/04 08:19:16;;;;;;;10.20;6.90;;;;;;;;;;744864;185;921068;-59
2022/04/04 08:21:42;;;;;;;7.10;5.77;;;;;;;;;;743192;185;919702;-60
2022/04/04 08:24:08;;;;;;;7.27;5.30;;;;;;;;;;756771;184;919553;-60
2022/04/04 08:26:35;;;;;;;6.97;4.77;;;;;;;;;;743530;184;920554;-60
2022/04/04 08:29:00;;;;;;;8.13;6.70;;;;;;;;;;740560;185;919096;-60
2022/04/04 08:31:26;;;;;;;9.13;7.50;;;;;;;;;;743969;185;945509;-59
2022/04/04 08:33:52;;;;;;;11.13;7.10;;;;;;;;;;744501;186;918713;-58
2022/04/04 08:36:17;;;;;;;9.30;7.33;;;;;;;;;;743775;186;935120;-59
2022/04/04 08:38:43;;;;;;;10.30;7.60;;;;;;;;;;746916;187;932333;-59
2022/04/04 08:41:10;;;;;;;11.83;7.40;;;;;;;;;;742358;187;919694;-60
2022/04/04 08:43:35;;;;;;;13.30;7.80;;;;;;;;;;741451;187;919432;-59
2022/04/04 08:46:01;;;;;;;11.30;8.37;;;;;;;;;;742399;187;919313;-59
2022/04/04 08:48:29;;;;;;;9.10;7.13;;;;;;;;;;742668;186;920206;-59
2022/04/04 08:50:52;;;;;;;11.30;7.63;;;;;;;;;;732450;187;919318;-58
2022/04/04 08:53:18;;;;;;;10.57;8.03;;;;;;;;;;742522;185;1021844;-59
2022/04/04 08:55:44;;;;;;;12.80;7.50;;;;;;;;;;748421;186;919467;-59
2022/04/04 08:58:10;;;;;;;11.77;7.33;;;;;;;;;;742551;185;924333;-60
2022/04/04 09:00:38;;;;;;;9.38;5.93;;;;;;;;;;741902;188;919560;-59
2022/04/04 09:03:03;;;;;;;13.80;7.03;;;;;;;;;;741387;187;918112;-59
2022/04/04 09:05:29;;;;;;;8.07;5.73;;;;;;;;;;753293;185;920135;-59
2022/04/04 09:07:59;;;;;;;8.65;5.87;;;;;;;;;;745916;187;920279;-60
2022/04/04 09:10:30;;;;;;;8.73;6.13;;;;;;;;;;744930;186;918548;-59
2022/04/04 09:12:56;;;;;;;11.63;6.43;;;;;;;;;;752817;186;919485;-59
2022/04/04 09:15:21;;;;;;;9.40;6.30;;;;;;;;;;741896;184;919666;-59
2022/04/04 09:17:47;;;;;;;9.83;7.10;;;;;;;;;;752328;184;915286;-59
2022/04/04 09:20:13;;;;;;;17.30;5.70;;;;;;;;;;752009;184;916298;-59
2022/04/04 09:22:39;;;;;;;9.00;5.90;;;;;;;;;;746507;185;915750;-60
2022/04/04 09:25:05;;;;;;;8.10;6.03;;;;;;;;;;743769;185;916130;-59
2022/04/04 09:27:31;;;;;;;7.43;5.90;;;;;;;;;;750895;185;915142;-61
2022/04/04 09:29:57;;;;;;;8.37;4.50;;;;;;;;;;752584;187;915853;-59
2022/04/04 09:32:23;;;;;;;5.50;3.67;;;;;;;;;;745601;187;919711;-60
2022/04/04 09:34:50;;;;;;;14.07;5.47;;;;;;;;;;740154;187;1021847;-59
2022/04/04 09:37:16;;;;;;;11.33;5.27;;;;;;;;;;753143;185;919434;-60
2022/04/04 09:39:42;;;;;;;8.57;5.40;;;;;;;;;;749985;184;919037;-60
2022/04/04 09:42:14;;;;;;;5.97;4.40;;;;;;;;;;746676;185;923098;-60
2022/04/04 09:44:39;;;;;;;11.43;6.00;;;;;;;;;;744521;187;996556;-60
2022/04/04 09:47:05;;;;;;;8.98;5.95;;;;;;;;;;750017;187;918519;-60
2022/04/04 09:49:31;;;;;;;9.20;6.57;;;;;;;;;;744272;187;919235;-60
2022/04/04 09:51:57;;;;;;;6.30;4.65;;;;;;;;;;742264;187;933212;-60
2022/04/04 09:54:23;;;;;;;11.10;6.17;;;;;;;;;;747698;186;904233;-59
2022/04/04 09:56:50;;;;;;;7.43;6.50;;;;;;;;;;744646;187;919512;-60
2022/04/04 09:59:15;;;;;;;12.30;6.30;;;;;;;;;;744636;185;919333;-60
2022/04/04 10:01:41;;;;;;;13.97;8.53;;;;;;;;;;746416;188;918535;-60
2022/04/04 10:04:06;;;;;;;9.03;7.30;;;;;;;;;;740734;188;917910;-60
2022/04/04 10:06:32;;;;;;;7.30;5.30;;;;;;;;;;742520;185;1018161;-61
2022/04/04 10:08:58;;;;;;;12.40;7.00;;;;;;;;;;750107;184;920004;-60
2022/04/04 10:11:24;;;;;;;13.13;6.90;;;;;;;;;;748740;186;914911;-60
2022/04/04 10:13:50;;;;;;;10.50;7.03;;;;;;;;;;740462;186;914953;-64
2022/04/04 10:16:16;;;;;;;8.00;6.13;;;;;;;;;;741107;187;914652;-60
2022/04/04 10:18:42;;;;;;;7.07;5.30;;;;;;;;;;747493;187;918812;-60
2022/04/04 10:21:08;;;;;;;9.60;7.20;;;;;;;;;;742933;185;919043;-60
2022/04/04 10:23:34;;;;;;;9.77;7.33;;;;;;;;;;742699;184;919145;-60
2022/04/04 10:26:00;;;;;;;12.03;8.50;;;;;;;;;;746831;185;919411;-62
2022/04/04 10:28:29;;;;;;;9.27;7.10;;;;;;;;;;743360;186;918824;-61
2022/04/04 10:30:57;;;;;;;9.00;6.47;;;;;;;;;;743495;187;919447;-60
2022/04/04 10:33:25;;;;;;;10.60;7.10;;;;;;;;;;745022;186;919348;-60
2022/04/04 10:36:04;;;;;;;12.03;7.37;;;;;;;;;;747956;185;915352;-60
2022/04/04 10:38:29;;;;;;;8.37;6.90;;;;;;;;;;748773;187;916328;-61
2022/04/04 10:40:55;;;;;;;5.60;3.80;;;;;;;;;;740262;187;918784;-61
2022/04/04 10:43:21;;;;;;;9.02;5.82;;;;;;;;;;743302;184;916660;-60
2022/04/04 10:45:52;;;;;;;11.43;5.83;;;;;;;;;;750868;187;919033;-60
2022/04/04 10:48:17;;;;;;;6.30;5.00;;;;;;;;;;743165;186;919599;-60
2022/04/04 10:50:43;;;;;;;5.70;4.33;;;;;;;;;;743619;184;919010;-61
2022/04/04 10:53:10;;;;;;;6.17;4.63;;;;;;;;;;744227;184;920103;-60
2022/04/04 10:55:43;;;;;;;10.23;3.70;;;;;;;;;;748891;184;918127;-61
2022/04/04 10:58:12;;;;;;;7.70;5.87;;;;;;;;;;742927;187;1022940;-61
2022/04/04 11:00:43;;;;;;;5.37;4.57;;;;;;;;;;746418;187;918873;-61
2022/04/04 11:03:09;;;;;;;7.47;5.20;;;;;;;;;;742076;185;919929;-61
2022/04/04 11:08:06;;;;;;;7.60;4.67;;;;;;;;;;746050;187;918950;-61
2022/04/04 11:10:38;;;;;;;7.17;5.13;;;;;;;;;;746883;187;918506;-63
2022/04/04 11:13:08;;;;;;;17.70;5.25;;;;;;;;;;746209;186;941478;-61
2022/04/04 11:15:37;;;;;;;7.07;4.80;;;;;;;;;;747309;187;918729;-61
2022/04/04 11:18:03;;;;;;;7.53;5.70;;;;;;;;;;747792;186;919454;-62
2022/04/04 11:20:31;;;;;;;7.10;5.70;;;;;;;;;;743486;185;919310;-61
2022/04/04 11:22:58;;;;;;;6.07;4.53;;;;;;;;;;741102;185;926636;-62
2022/04/04 11:25:38;;;;;;;9.10;5.57;;;;;;;;;;747991;187;920604;-61
2022/04/04 11:28:04;;;;;;;5.90;5.27;;;;;;;;;;748018;186;918648;-61
2022/04/04 11:30:31;;;;;;;5.60;4.30;;;;;;;;;;745631;185;919721;-61
2022/04/04 11:32:57;;;;;;;10.07;5.40;;;;;;;;;;746327;187;917433;-61
2022/04/04 11:35:23;;;;;;;7.30;4.97;;;;;;;;;;754266;185;631150;-61
2022/04/04 11:37:49;;;;;;;11.93;5.50;;;;;;;;;;751700;186;631276;-62
2022/04/04 11:40:15;;;;;;;6.67;5.07;;;;;;;;;;748459;186;919416;-61
2022/04/04 11:42:41;;;;;;;8.33;5.30;;;;;;;;;;746044;186;1020973;-61
2022/04/04 11:45:08;;;;;;;11.90;5.87;;;;;;;;;;751587;186;814101;-61
2022/04/04 11:47:33;;;;;;;6.10;4.63;;;;;;;;;;741896;186;917051;-61
2022/04/04 11:50:01;;;;;;;6.37;4.83;;;;;;;;;;749125;186;766342;-62
2022/04/04 11:52:25;;;;;;;7.20;5.17;;;;;;;;;;748634;187;919487;-62
2022/04/04 11:54:50;;;;;;;7.17;4.30;;;;;;;;;;745424;186;919245;-63
2022/04/04 11:57:16;;;;;;;8.13;4.70;;;;;;;;;;744448;186;913862;-63
2022/04/04 11:59:42;;;;;;;5.13;3.77;;;;;;;;;;751762;187;910773;-62
2022/04/04 12:02:08;;;;;;;9.47;4.90;;;;;;;;;;745643;186;919685;-62
2022/04/04 12:04:34;;;;;;;7.60;4.33;;;;;;;;;;745498;187;920049;-61
2022/04/04 12:07:01;;;;;;;8.30;5.33;;;;;;;;;;748373;187;918643;-62
2022/04/04 12:09:26;;;;;;;9.83;4.87;;;;;;;;;;746014;186;918858;-63
2022/04/04 12:11:52;;;;;;;9.63;5.23;;;;;;;;;;740930;187;919077;-61
2022/04/04 12:14:18;;;;;;;6.17;4.13;;;;;;;;;;740020;187;919793;-61
2022/04/04 12:16:48;;;;;;;5.80;4.40;;;;;;;;;;748475;184;918200;-61
2022/04/04 12:19:14;;;;;;;6.33;4.20;;;;;;;;;;716126;193;919349;-62
2022/04/04 12:21:39;;;;;;;7.00;4.27;;;;;;;;;;740790;187;918054;-61
2022/04/04 12:26:37;;;;;;;7.23;4.33;;;;;;;;;;747889;185;918981;-61
2022/04/04 12:29:07;;;;;;;8.23;4.00;;;;;;;;;;743894;184;915735;-61
2022/04/04 12:31:29;;;;;;;5.33;3.60;;;;;;;;;;740788;185;916245;-60
2022/04/04 12:34:00;;;;;;;4.70;3.40;;;;;;;;;;746528;184;916275;-62
2022/04/04 12:36:28;;;;;;;7.73;3.40;;;;;;;;;;743006;185;919894;-62
2022/04/04 12:38:54;;;;;;;7.33;4.97;;;;;;;;;;741868;184;918808;-62
2022/04/04 12:41:20;;;;;;;6.30;4.33;;;;;;;;;;730120;189;919694;-60
2022/04/04 12:43:45;;;;;;;7.20;4.60;;;;;;;;;;749794;187;918670;-63
2022/04/04 12:46:18;;;;;;;6.18;4.25;;;;;;;;;;747021;186;940153;-63
2022/04/04 12:48:43;;;;;;;4.90;3.23;;;;;;;;;;746399;185;921261;-62
2022/04/04 12:51:09;;;;;;;6.07;4.60;;;;;;;;;;749740;188;922146;-62
2022/04/04 12:53:41;;;;;;;6.93;4.30;;;;;;;;;;741204;184;919104;-60
2022/04/04 12:56:08;;;;;;;5.47;4.70;;;;;;;;;;741209;185;919396;-62
2022/04/04 12:58:34;;;;;;;8.97;4.40;;;;;;;;;;745528;187;919561;-62
2022/04/04 13:00:59;;;;;;;5.40;4.00;;;;;;;;;;750069;187;919818;-61
2022/04/04 13:03:26;;;;;;;6.47;4.90;;;;;;;;;;748456;185;982166;-62
2022/04/04 13:05:52;;;;;;;5.57;4.20;;;;;;;;;;745744;187;918914;-61
2022/04/04 13:08:19;;;;;;;5.57;3.75;;;;;;;;;;751746;185;919384;-61
2022/04/04 13:10:45;;;;;;;6.77;4.30;;;;;;;;;;740566;188;918821;-62
2022/04/04 13:13:11;;;;;;;5.87;3.97;;;;;;;;;;737003;185;920691;-62
2022/04/04 13:15:37;;;;;;;4.83;3.60;;;;;;;;;;740237;184;917837;-62
2022/04/04 13:18:02;;;;;;;7.90;3.37;;;;;;;;;;748920;185;919448;-62
2022/04/04 13:20:28;;;;;;;4.20;2.90;;;;;;;;;;713701;190;918059;-61
2022/04/04 13:22:54;;;;;;;6.17;4.40;;;;;;;;;;738378;184;1017567;-62
2022/04/04 13:25:20;;;;;;;5.00;3.77;;;;;;;;;;750538;185;918392;-61
2022/04/04 13:27:46;;;;;;;6.83;3.87;;;;;;;;;;740969;185;919783;-62
2022/04/04 13:30:12;;;;;;;5.20;4.23;;;;;;;;;;746325;185;918300;-61
2022/04/04 13:32:40;;;;;;;18.10;4.18;;;;;;;;;;748408;185;898184;-61
2022/04/04 13:35:05;;;;;;;5.43;4.00;;;;;;;;;;743510;185;816867;-61
2022/04/04 13:37:31;;;;;;;4.97;3.60;;;;;;;;;;744594;186;1012718;-62
2022/04/04 13:39:57;;;;;;;7.37;4.10;;;;;;;;;;741854;187;1026697;-61
2022/04/04 13:42:22;;;;;;;5.40;3.65;;;;;;;;;;748031;187;919518;-62
2022/04/04 13:44:51;;;;;;;5.37;4.13;;;;;;;;;;742003;187;1017703;-63
2022/04/04 13:47:14;;;;;;;5.40;3.80;;;;;;;;;;743340;186;919504;-61
2022/04/04 13:49:40;;;;;;;11.53;4.37;;;;;;;;;;750302;185;816995;-61
2022/04/04 13:52:09;;;;;;;5.90;4.50;;;;;;;;;;746164;185;980103;-62
2022/04/04 13:54:32;;;;;;;6.60;4.37;;;;;;;;;;745017;185;920218;-62
2022/04/04 13:56:58;;;;;;;5.40;4.30;;;;;;;;;;750194;185;919425;-61
2022/04/04 13:59:24;;;;;;;8.33;3.60;;;;;;;;;;755298;181;1021543;-62
2022/04/04 14:01:50;;;;;;;6.47;4.73;;;;;;;;;;745561;184;918878;-62
2022/04/04 14:04:16;;;;;;;5.83;4.60;;;;;;;;;;746838;185;919241;-61
2022/04/04 14:06:42;;;;;;;7.40;4.20;;;;;;;;;;750942;185;924650;-61
2022/04/04 14:09:08;;;;;;;4.77;3.40;;;;;;;;;;745532;186;917693;-62
2022/04/04 14:11:35;;;;;;;4.63;3.27;;;;;;;;;;744941;184;920899;-61
2022/04/04 14:13:59;;;;;;;9.30;4.87;;;;;;;;;;752359;185;921275;-62
2022/04/04 14:16:25;;;;;;;6.70;4.23;;;;;;;;;;745581;185;918891;-60
2022/04/04 14:18:51;;;;;;;5.60;4.70;;;;;;;;;;746529;185;920506;-61